Nikishka, Alaska
Current Conditions -  °F | °C
As of 3:53 AM on Sunday 23 Nov 2014 (Local Time) from PAEN Reporting Station
Overcast Overcast  
Wind Chill: -5°   Ceiling: 5000
Heat Index: -1°   Visibility: 10mi
Dew Point: -3°   Wind: 8mph
Humidity: 85%   Direction: 40°NE
Pressure: 29.33"   Gusts: NA
Location:  60.7377°N, 151.324°W
Report Text: PAEN 231253Z AUTO 04007KT 10SM OVC050 M01/M03 A2933 RMK AO2 SLP933 T10111033 TSNO
Loading
Personal Weather Stations






























Interactive Weather Map New forecast layout! Learn more

10-Day Weather Forecast

Advertisements
Track Severe Weather on mobile